Time;durP1;ratioP1;P1;durP2;ratioP2;P2;SDS_P1;SDS_P2;PMS_P1;PMS_P2;Temp;Humidity;BMP_temperature;BMP_pressure;BME280_temperature;BME280_humidity;BME280_pressure;Samples;Min_cycle;Max_cycle;Signal;HPM_P1;HPM_P2
2022/12/12 00:01:40;;;;;;;0.43;0.40;;;;;;;;;;4231271;28;20452;-40
2022/12/12 00:03:41;;;;;;;0.60;0.50;;;;;;;;;;4220342;28;20383;-40
2022/12/12 00:05:43;;;;;;;1.20;0.60;;;;;;;;;;4229192;28;20092;-40
2022/12/12 00:07:44;;;;;;;0.50;0.40;;;;;;;;;;4229823;28;20529;-40
2022/12/12 00:09:46;;;;;;;0.82;0.60;;;;;;;;;;4221349;28;20052;-40
2022/12/12 00:11:47;;;;;;;0.40;0.40;;;;;;;;;;4232042;28;20104;-41
2022/12/12 00:13:49;;;;;;;0.40;0.40;;;;;;;;;;4231526;28;20451;-40
2022/12/12 00:15:50;;;;;;;0.50;0.40;;;;;;;;;;4231650;28;20093;-40
2022/12/12 00:17:51;;;;;;;1.17;0.65;;;;;;;;;;4231715;28;20459;-40
2022/12/12 00:19:53;;;;;;;0.40;0.40;;;;;;;;;;4231730;28;20096;-40
2022/12/12 00:21:54;;;;;;;0.75;0.65;;;;;;;;;;4231680;28;20192;-40
2022/12/12 00:23:56;;;;;;;0.43;0.40;;;;;;;;;;4230957;28;20048;-40
2022/12/12 00:26:01;;;;;;;0.68;0.47;;;;;;;;;;4231699;28;20128;-41
2022/12/12 00:28:03;;;;;;;0.50;0.40;;;;;;;;;;4196566;28;20190;-40
2022/12/12 00:30:05;;;;;;;0.35;0.32;;;;;;;;;;4231305;28;20246;-41
2022/12/12 00:32:07;;;;;;;0.68;0.60;;;;;;;;;;4230884;28;20196;-40
2022/12/12 00:34:08;;;;;;;0.40;0.40;;;;;;;;;;4231234;28;20047;-40
2022/12/12 00:36:10;;;;;;;0.93;0.52;;;;;;;;;;4222856;28;20086;-40
2022/12/12 00:38:11;;;;;;;0.50;0.38;;;;;;;;;;4225874;28;20055;-40
2022/12/12 00:40:13;;;;;;;0.80;0.47;;;;;;;;;;4216789;28;20403;-40
2022/12/12 00:42:14;;;;;;;0.65;0.65;;;;;;;;;;4231143;28;20109;-40
2022/12/12 00:44:16;;;;;;;0.73;0.40;;;;;;;;;;4231055;28;20048;-40
2022/12/12 00:46:20;;;;;;;0.60;0.45;;;;;;;;;;4220472;28;20056;-40
2022/12/12 00:48:22;;;;;;;0.50;0.50;;;;;;;;;;4227373;28;20497;-40
2022/12/12 00:50:24;;;;;;;0.47;0.47;;;;;;;;;;4214322;28;20093;-40
2022/12/12 00:52:26;;;;;;;0.55;0.50;;;;;;;;;;4214355;28;20109;-41
2022/12/12 00:54:27;;;;;;;0.88;0.63;;;;;;;;;;4213774;28;20044;-40
2022/12/12 00:56:28;;;;;;;0.63;0.50;;;;;;;;;;4227595;28;20055;-40
2022/12/12 00:58:30;;;;;;;0.43;0.43;;;;;;;;;;4229123;28;20063;-40
2022/12/12 01:00:32;;;;;;;0.60;0.50;;;;;;;;;;4206441;28;20068;-40
2022/12/12 01:02:34;;;;;;;0.73;0.50;;;;;;;;;;4213841;28;20055;-40
2022/12/12 01:04:35;;;;;;;0.60;0.43;;;;;;;;;;4225117;28;20575;-40
2022/12/12 01:06:36;;;;;;;0.50;0.50;;;;;;;;;;4213945;28;20052;-40
2022/12/12 01:08:38;;;;;;;0.60;0.50;;;;;;;;;;4218560;28;20106;-40
2022/12/12 01:10:40;;;;;;;0.47;0.43;;;;;;;;;;4230516;28;20051;-40
2022/12/12 01:12:41;;;;;;;1.08;0.45;;;;;;;;;;4200289;28;20056;-40
2022/12/12 01:14:43;;;;;;;0.60;0.50;;;;;;;;;;4228329;28;20043;-41
2022/12/12 01:16:44;;;;;;;0.73;0.50;;;;;;;;;;4226316;28;20387;-40
2022/12/12 01:18:45;;;;;;;0.85;0.68;;;;;;;;;;4213638;28;20063;-40
2022/12/12 01:20:47;;;;;;;0.30;0.30;;;;;;;;;;4213943;28;20048;-40
2022/12/12 01:22:48;;;;;;;0.75;0.65;;;;;;;;;;4227314;28;20059;-41
2022/12/12 01:24:49;;;;;;;1.20;0.77;;;;;;;;;;4208566;28;20053;-40
2022/12/12 01:26:51;;;;;;;1.05;0.65;;;;;;;;;;4213727;28;20162;-40
2022/12/12 01:28:52;;;;;;;0.80;0.80;;;;;;;;;;4213478;28;20052;-40
2022/12/12 01:30:54;;;;;;;0.45;0.40;;;;;;;;;;4226687;28;20711;-40
2022/12/12 01:32:56;;;;;;;0.60;0.45;;;;;;;;;;4230163;28;20455;-41
2022/12/12 01:34:57;;;;;;;0.40;0.30;;;;;;;;;;4224267;28;20044;-40
2022/12/12 01:36:58;;;;;;;0.43;0.43;;;;;;;;;;4213684;28;20052;-40
2022/12/12 01:38:59;;;;;;;0.68;0.50;;;;;;;;;;4213084;28;20059;-41
2022/12/12 01:41:01;;;;;;;0.70;0.50;;;;;;;;;;4208813;28;20052;-40
2022/12/12 01:43:08;;;;;;;0.40;0.30;;;;;;;;;;4200151;28;20158;-40
2022/12/12 01:45:47;;;;;;;0.45;0.40;;;;;;;;;;4211998;28;20052;-40
2022/12/12 01:47:48;;;;;;;0.90;0.50;;;;;;;;;;4216831;28;20052;-40
2022/12/12 01:49:55;;;;;;;0.50;0.30;;;;;;;;;;4223462;28;20118;-40
2022/12/12 01:52:01;;;;;;;0.40;0.40;;;;;;;;;;4213363;28;20342;-40
2022/12/12 01:54:24;;;;;;;0.93;0.50;;;;;;;;;;4191834;28;20075;-40
2022/12/12 01:56:26;;;;;;;0.60;0.60;;;;;;;;;;4220178;28;20052;-40
2022/12/12 01:58:29;;;;;;;0.40;0.40;;;;;;;;;;4219745;28;20411;-42
2022/12/12 02:00:30;;;;;;;0.60;0.40;;;;;;;;;;4195271;28;20417;-40
2022/12/12 02:02:32;;;;;;;0.77;0.57;;;;;;;;;;4215385;28;20066;-40
2022/12/12 02:04:33;;;;;;;0.40;0.40;;;;;;;;;;4224277;28;20500;-40
2022/12/12 02:06:34;;;;;;;0.30;0.30;;;;;;;;;;4229575;28;20108;-40
2022/12/12 02:08:37;;;;;;;0.60;0.52;;;;;;;;;;4229264;28;20562;-40
2022/12/12 02:10:39;;;;;;;0.52;0.40;;;;;;;;;;4229914;28;20055;-40
2022/12/12 02:12:40;;;;;;;0.40;0.38;;;;;;;;;;4229842;28;20137;-40
2022/12/12 02:14:44;;;;;;;0.70;0.50;;;;;;;;;;4229179;28;20375;-40
2022/12/12 02:17:03;;;;;;;0.40;0.40;;;;;;;;;;4229779;28;20048;-40
2022/12/12 02:19:16;;;;;;;0.40;0.40;;;;;;;;;;4221925;28;20056;-40
2022/12/12 02:21:32;;;;;;;0.40;0.40;;;;;;;;;;4221284;28;20204;-41
2022/12/12 02:23:46;;;;;;;0.47;0.40;;;;;;;;;;4228673;28;20135;-40
2022/12/12 02:26:05;;;;;;;0.47;0.43;;;;;;;;;;4211297;28;20055;-40
2022/12/12 02:28:23;;;;;;;0.40;0.40;;;;;;;;;;4229268;28;20121;-40
2022/12/12 02:30:36;;;;;;;0.65;0.55;;;;;;;;;;4211332;28;20110;-40
2022/12/12 02:33:04;;;;;;;0.50;0.50;;;;;;;;;;4222381;28;20482;-40
2022/12/12 02:35:51;;;;;;;0.68;0.50;;;;;;;;;;4226175;28;20384;-40
2022/12/12 02:38:00;;;;;;;0.43;0.43;;;;;;;;;;4229224;28;20056;-40
2022/12/12 02:40:43;;;;;;;0.77;0.40;;;;;;;;;;4228831;28;20051;-40
2022/12/12 02:42:50;;;;;;;0.68;0.50;;;;;;;;;;4228839;28;20494;-40
2022/12/12 02:45:16;;;;;;;0.45;0.45;;;;;;;;;;4229208;28;20047;-40
2022/12/12 02:47:21;;;;;;;0.82;0.65;;;;;;;;;;4206200;28;20144;-40
2022/12/12 02:49:37;;;;;;;0.50;0.47;;;;;;;;;;4207206;28;20056;-41
2022/12/12 02:51:41;;;;;;;0.40;0.40;;;;;;;;;;4194436;28;20052;-40
2022/12/12 02:53:42;;;;;;;0.43;0.30;;;;;;;;;;4210493;28;20122;-40
2022/12/12 02:55:43;;;;;;;0.47;0.47;;;;;;;;;;4228846;28;20101;-40
2022/12/12 02:57:45;;;;;;;0.60;0.50;;;;;;;;;;4229019;28;20516;-40
2022/12/12 02:59:54;;;;;;;0.60;0.50;;;;;;;;;;4210629;28;20125;-40
2022/12/12 03:02:03;;;;;;;0.70;0.50;;;;;;;;;;4194080;28;20052;-40
2022/12/12 03:09:26;;;;;;;0.30;0.30;;;;;;;;;;4227540;28;20063;-40
2022/12/12 03:11:53;;;;;;;0.50;0.50;;;;;;;;;;4210313;28;20416;-40
2022/12/12 03:14:08;;;;;;;0.63;0.55;;;;;;;;;;4210245;28;20055;-40
2022/12/12 03:16:18;;;;;;;0.60;0.50;;;;;;;;;;4210753;28;20056;-40
2022/12/12 03:18:26;;;;;;;0.53;0.40;;;;;;;;;;4210661;28;20486;-40
2022/12/12 03:20:33;;;;;;;0.65;0.43;;;;;;;;;;4210633;28;20453;-40
2022/12/12 03:22:58;;;;;;;0.43;0.40;;;;;;;;;;4210639;28;20086;-40
2022/12/12 03:25:06;;;;;;;0.55;0.50;;;;;;;;;;4217190;28;20495;-40
2022/12/12 03:27:17;;;;;;;0.45;0.43;;;;;;;;;;4223214;28;20058;-40
2022/12/12 03:29:24;;;;;;;0.73;0.50;;;;;;;;;;4210119;28;20109;-40
2022/12/12 03:31:29;;;;;;;0.50;0.40;;;;;;;;;;4206080;28;20056;-41
2022/12/12 03:33:38;;;;;;;0.63;0.50;;;;;;;;;;4207554;28;20052;-40
2022/12/12 03:35:46;;;;;;;0.50;0.40;;;;;;;;;;4223748;28;20047;-40
2022/12/12 03:38:09;;;;;;;0.30;0.30;;;;;;;;;;4210315;28;20751;-40
2022/12/12 03:40:13;;;;;;;0.38;0.30;;;;;;;;;;4209403;28;20108;-40
2022/12/12 03:42:20;;;;;;;0.80;0.40;;;;;;;;;;4210390;28;20396;-40
2022/12/12 03:44:29;;;;;;;0.65;0.57;;;;;;;;;;4228230;28;20101;-40
2022/12/12 03:46:50;;;;;;;0.40;0.30;;;;;;;;;;4228776;28;20517;-41
2022/12/12 03:48:58;;;;;;;0.40;0.40;;;;;;;;;;4206317;28;20051;-40
2022/12/12 03:51:03;;;;;;;0.60;0.60;;;;;;;;;;4220729;28;20097;-40
2022/12/12 03:53:16;;;;;;;0.43;0.38;;;;;;;;;;4228569;28;20055;-40
2022/12/12 03:55:31;;;;;;;0.65;0.40;;;;;;;;;;4223298;28;20059;-40
2022/12/12 03:57:38;;;;;;;0.70;0.45;;;;;;;;;;4205127;28;20156;-40
2022/12/12 04:00:04;;;;;;;0.68;0.50;;;;;;;;;;4228399;28;20047;-40
2022/12/12 04:02:18;;;;;;;0.45;0.35;;;;;;;;;;4222718;28;20079;-40
2022/12/12 04:04:33;;;;;;;0.32;0.30;;;;;;;;;;4221932;28;20055;-41
2022/12/12 04:06:40;;;;;;;0.40;0.40;;;;;;;;;;4220031;28;20059;-40
2022/12/12 04:12:57;;;;;;;0.40;0.32;;;;;;;;;;4209527;28;20051;-40
2022/12/12 04:13:44;;;;;;;0.40;0.25;;;;;;;;;;4192650;28;20149;-40
2022/12/12 04:15:55;;;;;;;0.50;0.40;;;;;;;;;;4203626;28;20059;-40
2022/12/12 04:17:56;;;;;;;;;;;;;;;;;;4228731;28;20431;-41
2022/12/12 04:23:16;;;;;;;0.40;0.40;;;;;;;;;;4219265;28;20081;-40
2022/12/12 04:26:37;;;;;;;0.40;0.40;;;;;;;;;;4208133;28;20562;-40
2022/12/12 04:28:00;;;;;;;0.52;0.45;;;;;;;;;;4227816;28;20052;-40
2022/12/12 04:30:07;;;;;;;0.40;0.40;;;;;;;;;;4185332;28;20106;-40
2022/12/12 04:32:35;;;;;;;0.40;0.40;;;;;;;;;;4228057;28;20047;-40
2022/12/12 04:34:41;;;;;;;0.60;0.50;;;;;;;;;;4158974;28;20450;-42
2022/12/12 04:36:44;;;;;;;0.40;0.40;;;;;;;;;;4210156;28;20097;-41
2022/12/12 04:38:47;;;;;;;0.63;0.60;;;;;;;;;;4209348;28;20056;-41
2022/12/12 04:40:53;;;;;;;0.35;0.25;;;;;;;;;;4210186;28;20091;-41
2022/12/12 04:43:02;;;;;;;0.50;0.50;;;;;;;;;;4228497;28;20051;-41
2022/12/12 04:45:10;;;;;;;0.43;0.40;;;;;;;;;;4209795;28;20052;-41
2022/12/12 04:47:13;;;;;;;0.55;0.50;;;;;;;;;;4171028;28;20551;-41
2022/12/12 04:49:25;;;;;;;0.82;0.50;;;;;;;;;;4225597;28;20074;-41
2022/12/12 04:51:28;;;;;;;;;;;;;;;;;;4213284;28;20052;-41
2022/12/12 04:53:33;;;;;;;0.68;0.47;;;;;;;;;;4212083;28;19920;-41
2022/12/12 04:55:36;;;;;;;0.57;0.45;;;;;;;;;;4213145;28;20092;-41
2022/12/12 04:57:42;;;;;;;0.40;0.40;;;;;;;;;;4207346;28;20079;-41
2022/12/12 04:59:44;;;;;;;0.80;0.40;;;;;;;;;;4230833;28;20109;-41
2022/12/12 05:01:54;;;;;;;0.50;0.38;;;;;;;;;;4225218;28;20436;-41
2022/12/12 05:03:57;;;;;;;0.40;0.40;;;;;;;;;;4207641;28;20110;-41
2022/12/12 05:06:03;;;;;;;0.30;0.30;;;;;;;;;;4212718;28;20052;-41
2022/12/12 05:08:13;;;;;;;0.40;0.38;;;;;;;;;;4212401;28;20074;-40
2022/12/12 05:10:16;;;;;;;0.30;0.30;;;;;;;;;;4230177;28;20051;-41
2022/12/12 05:12:18;;;;;;;0.43;0.40;;;;;;;;;;4230361;28;20057;-41
2022/12/12 05:14:19;;;;;;;0.80;0.43;;;;;;;;;;4204083;28;20102;-41
2022/12/12 05:16:25;;;;;;;0.80;0.55;;;;;;;;;;4230491;28;20116;-41
2022/12/12 05:18:27;;;;;;;0.47;0.47;;;;;;;;;;4188867;28;20061;-41
2022/12/12 05:20:28;;;;;;;0.82;0.60;;;;;;;;;;4229362;28;20059;-41
2022/12/12 05:22:29;;;;;;;0.40;0.38;;;;;;;;;;4230573;28;20051;-40
2022/12/12 05:24:31;;;;;;;0.52;0.52;;;;;;;;;;4229747;28;20059;-41
2022/12/12 05:26:34;;;;;;;0.75;0.65;;;;;;;;;;4230446;28;20547;-40
2022/12/12 05:28:36;;;;;;;0.57;0.50;;;;;;;;;;4230125;28;20063;-40
2022/12/12 05:30:38;;;;;;;0.60;0.60;;;;;;;;;;4199759;28;20059;-41
2022/12/12 05:32:39;;;;;;;0.40;0.40;;;;;;;;;;4211143;28;20056;-42
2022/12/12 05:34:41;;;;;;;0.70;0.60;;;;;;;;;;4230536;28;20047;-43
2022/12/12 05:36:43;;;;;;;0.90;0.60;;;;;;;;;;4230123;28;20081;-41
2022/12/12 05:38:44;;;;;;;0.65;0.65;;;;;;;;;;4230121;28;20398;-42
2022/12/12 05:40:45;;;;;;;0.68;0.60;;;;;;;;;;4229893;28;20410;-42
2022/12/12 05:42:47;;;;;;;0.40;0.35;;;;;;;;;;4230395;28;20062;-43
2022/12/12 05:44:48;;;;;;;0.60;0.60;;;;;;;;;;4211854;28;20047;-44
2022/12/12 05:46:49;;;;;;;0.90;0.60;;;;;;;;;;4230140;28;20052;-41
2022/12/12 05:48:51;;;;;;;0.52;0.50;;;;;;;;;;4229788;28;20047;-42
2022/12/12 05:50:52;;;;;;;0.82;0.60;;;;;;;;;;4222081;28;20056;-41
2022/12/12 05:52:53;;;;;;;0.50;0.40;;;;;;;;;;4230021;28;20383;-42
2022/12/12 05:54:54;;;;;;;1.50;0.80;;;;;;;;;;4229417;28;20101;-42
2022/12/12 05:56:56;;;;;;;0.60;0.50;;;;;;;;;;4230064;28;20062;-43
2022/12/12 05:58:57;;;;;;;0.43;0.43;;;;;;;;;;4229399;28;20055;-41
2022/12/12 06:00:58;;;;;;;0.85;0.60;;;;;;;;;;4223289;27;20427;-41
2022/12/12 06:03:00;;;;;;;0.93;0.55;;;;;;;;;;4222150;28;20067;-41
2022/12/12 06:05:01;;;;;;;0.77;0.52;;;;;;;;;;4227793;28;20097;-42
2022/12/12 06:07:03;;;;;;;0.60;0.60;;;;;;;;;;4192754;28;20056;-41
2022/12/12 06:09:04;;;;;;;0.52;0.52;;;;;;;;;;4220460;28;20060;-41
2022/12/12 06:11:06;;;;;;;0.52;0.50;;;;;;;;;;4227873;28;20059;-42
2022/12/12 06:13:08;;;;;;;0.93;0.70;;;;;;;;;;4227488;28;20097;-41
2022/12/12 06:15:09;;;;;;;0.57;0.50;;;;;;;;;;4227588;28;20168;-45
2022/12/12 06:17:11;;;;;;;1.35;0.60;;;;;;;;;;4228023;28;20063;-41
2022/12/12 06:19:12;;;;;;;0.95;0.80;;;;;;;;;;4209107;28;20434;-41
2022/12/12 06:21:13;;;;;;;0.73;0.63;;;;;;;;;;4220529;28;20085;-41
2022/12/12 06:23:15;;;;;;;2.15;0.73;;;;;;;;;;4220419;28;20121;-41
2022/12/12 06:25:16;;;;;;;2.58;0.70;;;;;;;;;;4226237;28;20056;-41
2022/12/12 06:27:18;;;;;;;0.80;0.60;;;;;;;;;;4227431;28;20104;-42
2022/12/12 06:29:19;;;;;;;0.80;0.43;;;;;;;;;;4218462;28;20099;-41
2022/12/12 06:31:21;;;;;;;0.95;0.80;;;;;;;;;;4201309;28;20056;-41
2022/12/12 06:33:22;;;;;;;2.03;0.60;;;;;;;;;;4220668;28;20052;-41
2022/12/12 06:35:24;;;;;;;2.45;0.70;;;;;;;;;;4202204;28;20082;-42
2022/12/12 06:37:25;;;;;;;2.28;0.93;;;;;;;;;;4220841;28;20414;-41
2022/12/12 06:39:26;;;;;;;2.08;0.82;;;;;;;;;;4211753;28;20052;-41
2022/12/12 06:41:29;;;;;;;1.17;0.60;;;;;;;;;;4226576;27;20059;-42
2022/12/12 06:43:30;;;;;;;1.63;1.05;;;;;;;;;;4199250;28;20573;-45
2022/12/12 06:45:31;;;;;;;1.90;0.93;;;;;;;;;;4196537;28;20424;-40
2022/12/12 06:47:32;;;;;;;5.65;0.88;;;;;;;;;;4208348;28;20189;-41
2022/12/12 06:49:34;;;;;;;1.35;1.15;;;;;;;;;;4211842;28;20128;-43
2022/12/12 06:51:42;;;;;;;1.20;1.00;;;;;;;;;;4210068;28;20127;-41
2022/12/12 06:53:44;;;;;;;0.98;0.88;;;;;;;;;;4202162;28;20375;-41
2022/12/12 06:55:45;;;;;;;0.90;0.73;;;;;;;;;;4219301;28;20519;-41
2022/12/12 06:57:47;;;;;;;3.13;0.80;;;;;;;;;;4220819;28;20059;-42
2022/12/12 06:59:50;;;;;;;3.45;0.90;;;;;;;;;;4214161;28;20051;-43
2022/12/12 07:01:54;;;;;;;3.10;1.13;;;;;;;;;;4216121;28;20054;-41
2022/12/12 07:03:56;;;;;;;2.63;0.98;;;;;;;;;;4212262;28;20056;-42
2022/12/12 07:05:57;;;;;;;2.33;0.90;;;;;;;;;;4216994;28;20504;-43
2022/12/12 07:08:01;;;;;;;1.15;0.88;;;;;;;;;;4211246;28;20120;-45
2022/12/12 07:10:03;;;;;;;2.20;0.93;;;;;;;;;;4210458;28;20460;-41
2022/12/12 07:12:04;;;;;;;2.55;0.90;;;;;;;;;;4209315;28;20112;-40
2022/12/12 07:14:06;;;;;;;1.92;0.85;;;;;;;;;;4213166;27;20109;-40
2022/12/12 07:16:08;;;;;;;1.30;0.70;;;;;;;;;;4213102;28;20104;-42
2022/12/12 07:18:09;;;;;;;1.00;0.80;;;;;;;;;;4194379;28;20257;-42
2022/12/12 07:20:11;;;;;;;3.92;1.15;;;;;;;;;;4196348;28;20056;-40
2022/12/12 07:22:12;;;;;;;2.45;1.08;;;;;;;;;;4203291;28;20063;-41
2022/12/12 07:24:14;;;;;;;2.03;0.68;;;;;;;;;;4183773;28;20055;-41
2022/12/12 07:26:20;;;;;;;4.22;1.20;;;;;;;;;;4203002;28;20568;-40
2022/12/12 07:28:22;;;;;;;2.08;1.25;;;;;;;;;;4201327;28;20055;-41
2022/12/12 07:30:24;;;;;;;4.40;1.10;;;;;;;;;;4187064;28;20060;-41
2022/12/12 07:32:25;;;;;;;1.85;0.90;;;;;;;;;;4189762;28;21790;-41
2022/12/12 07:34:29;;;;;;;1.90;0.80;;;;;;;;;;4208099;28;20127;-42
2022/12/12 07:36:31;;;;;;;3.08;1.00;;;;;;;;;;4190163;28;20060;-44
2022/12/12 07:38:33;;;;;;;4.57;0.93;;;;;;;;;;4206121;28;20141;-42
2022/12/12 07:40:34;;;;;;;3.17;0.90;;;;;;;;;;4189026;28;20596;-42
2022/12/12 07:42:35;;;;;;;2.13;1.00;;;;;;;;;;4214648;28;20055;-43
2022/12/12 07:44:37;;;;;;;2.40;0.85;;;;;;;;;;4206353;28;20109;-41
2022/12/12 07:46:38;;;;;;;1.63;0.93;;;;;;;;;;4189190;28;20055;-43
2022/12/12 07:48:40;;;;;;;1.42;0.85;;;;;;;;;;4208079;28;20052;-45
2022/12/12 07:50:41;;;;;;;4.28;1.00;;;;;;;;;;4212963;28;20051;-41
2022/12/12 07:52:43;;;;;;;3.53;0.85;;;;;;;;;;4209253;28;20059;-41
2022/12/12 07:54:44;;;;;;;2.15;1.00;;;;;;;;;;4204678;28;20051;-40
2022/12/12 07:56:46;;;;;;;2.63;1.27;;;;;;;;;;4211340;28;20059;-42
2022/12/12 07:58:47;;;;;;;5.40;1.08;;;;;;;;;;4205632;28;20094;-42
2022/12/12 08:00:49;;;;;;;1.20;1.08;;;;;;;;;;4150827;28;20871;-39
2022/12/12 08:02:50;;;;;;;1.23;1.05;;;;;;;;;;4180830;28;20504;-39
2022/12/12 08:04:52;;;;;;;3.05;1.02;;;;;;;;;;4173346;28;20060;-40
2022/12/12 08:06:53;;;;;;;3.08;1.25;;;;;;;;;;4174340;28;20056;-45
2022/12/12 08:08:54;;;;;;;4.35;1.48;;;;;;;;;;4175647;28;20179;-42
2022/12/12 08:10:55;;;;;;;3.25;1.08;;;;;;;;;;4175681;28;20137;-42
2022/12/12 08:12:56;;;;;;;2.70;1.00;;;;;;;;;;4197448;28;20156;-39
2022/12/12 08:14:57;;;;;;;6.05;1.70;;;;;;;;;;4201935;28;20059;-42
2022/12/12 08:16:58;;;;;;;2.22;1.23;;;;;;;;;;4186974;28;20108;-41
2022/12/12 08:19:00;;;;;;;3.53;1.17;;;;;;;;;;4195191;28;20538;-42
2022/12/12 08:21:06;;;;;;;3.65;1.25;;;;;;;;;;4205648;28;20391;-44
2022/12/12 08:23:07;;;;;;;5.00;1.70;;;;;;;;;;4206269;28;20055;-40
2022/12/12 08:25:09;;;;;;;1.75;0.98;;;;;;;;;;4199981;27;20055;-42
2022/12/12 08:27:10;;;;;;;4.85;1.58;;;;;;;;;;4199183;28;20084;-42
2022/12/12 08:29:12;;;;;;;5.00;1.33;;;;;;;;;;4203118;27;20055;-41
2022/12/12 08:31:14;;;;;;;6.10;1.55;;;;;;;;;;4198304;28;20132;-40
2022/12/12 08:33:16;;;;;;;3.15;1.20;;;;;;;;;;4187048;28;20458;-41
2022/12/12 08:35:17;;;;;;;4.70;1.42;;;;;;;;;;4202726;28;20047;-42
2022/12/12 08:37:18;;;;;;;4.50;1.63;;;;;;;;;;4201167;27;20514;-42
2022/12/12 08:39:20;;;;;;;2.22;1.23;;;;;;;;;;4193642;28;20100;-43
2022/12/12 08:41:22;;;;;;;3.28;1.40;;;;;;;;;;4200049;27;20196;-42
2022/12/12 08:43:23;;;;;;;3.90;1.27;;;;;;;;;;4206420;28;20777;-40
2022/12/12 08:45:25;;;;;;;3.35;1.10;;;;;;;;;;4178139;28;20711;-41
2022/12/12 08:47:26;;;;;;;5.88;1.20;;;;;;;;;;4177903;28;20149;-42
2022/12/12 08:49:28;;;;;;;4.15;1.33;;;;;;;;;;4203713;27;20109;-42
2022/12/12 08:51:29;;;;;;;3.17;1.13;;;;;;;;;;4192575;27;20191;-41
2022/12/12 08:53:30;;;;;;;3.60;1.20;;;;;;;;;;4195984;27;20056;-41
2022/12/12 08:55:31;;;;;;;3.38;1.60;;;;;;;;;;4194817;27;20508;-42
2022/12/12 08:57:33;;;;;;;2.30;1.17;;;;;;;;;;4172986;28;20567;-41
2022/12/12 08:59:34;;;;;;;3.75;1.60;;;;;;;;;;4176588;28;20581;-42
2022/12/12 09:01:36;;;;;;;4.20;1.33;;;;;;;;;;4198558;27;20105;-45
2022/12/12 09:03:37;;;;;;;5.85;1.27;;;;;;;;;;4193971;27;20056;-45
2022/12/12 09:05:45;;;;;;;1.55;1.08;;;;;;;;;;4202634;28;20164;-40
2022/12/12 09:07:46;;;;;;;4.25;1.20;;;;;;;;;;4196144;27;20058;-41
2022/12/12 09:09:48;;;;;;;3.35;1.45;;;;;;;;;;4197330;27;20165;-39
2022/12/12 09:11:49;;;;;;;4.90;1.50;;;;;;;;;;4197162;28;20051;-41
2022/12/12 09:13:51;;;;;;;6.82;1.73;;;;;;;;;;4179850;28;20079;-44
2022/12/12 09:15:53;;;;;;;3.40;0.90;;;;;;;;;;4200931;27;20055;-40
2022/12/12 09:17:54;;;;;;;3.53;1.55;;;;;;;;;;4203327;28;20077;-44
2022/12/12 09:19:55;;;;;;;2.45;1.30;;;;;;;;;;4204795;28;20060;-41
2022/12/12 09:21:56;;;;;;;2.83;1.33;;;;;;;;;;4201744;28;20051;-40
2022/12/12 09:23:58;;;;;;;2.05;1.17;;;;;;;;;;4200267;28;20052;-44
2022/12/12 09:26:06;;;;;;;4.22;1.13;;;;;;;;;;4180120;28;20059;-41
2022/12/12 09:28:09;;;;;;;3.58;1.23;;;;;;;;;;4195692;27;20051;-42
2022/12/12 09:30:10;;;;;;;3.70;1.30;;;;;;;;;;4199460;28;20115;-42
2022/12/12 09:32:11;;;;;;;3.65;1.20;;;;;;;;;;4192828;27;20494;-41
2022/12/12 09:34:13;;;;;;;1.83;1.30;;;;;;;;;;4184778;28;20067;-40
2022/12/12 09:36:14;;;;;;;2.33;1.20;;;;;;;;;;4203854;28;20054;-40
2022/12/12 09:38:18;;;;;;;3.17;1.23;;;;;;;;;;4201724;27;20527;-40
2022/12/12 09:40:30;;;;;;;1.67;1.00;;;;;;;;;;4200622;27;20108;-40
2022/12/12 09:42:32;;;;;;;2.92;1.30;;;;;;;;;;4201746;27;20051;-41
2022/12/12 09:44:33;;;;;;;2.75;1.23;;;;;;;;;;4203344;28;20156;-41
2022/12/12 09:46:38;;;;;;;2.00;1.00;;;;;;;;;;4174884;28;20055;-41
2022/12/12 09:48:45;;;;;;;2.08;1.17;;;;;;;;;;4193986;27;20488;-41
2022/12/12 09:50:48;;;;;;;4.40;1.10;;;;;;;;;;4173610;28;20060;-40
2022/12/12 09:52:50;;;;;;;1.35;0.93;;;;;;;;;;4199526;28;20062;-40
2022/12/12 09:54:51;;;;;;;1.98;1.08;;;;;;;;;;4196685;27;20079;-40
2022/12/12 09:57:05;;;;;;;3.15;0.82;;;;;;;;;;4190847;27;20122;-40
2022/12/12 09:59:32;;;;;;;2.22;0.70;;;;;;;;;;4199287;28;20055;-41
2022/12/12 10:01:54;;;;;;;2.90;1.02;;;;;;;;;;4141038;27;20133;-40
2022/12/12 10:04:16;;;;;;;2.47;1.23;;;;;;;;;;4178585;28;20142;-40
2022/12/12 10:06:19;;;;;;;1.30;0.70;;;;;;;;;;4191431;28;20470;-42
2022/12/12 10:08:21;;;;;;;1.40;0.90;;;;;;;;;;4190887;28;20055;-40
2022/12/12 10:10:30;;;;;;;2.08;0.88;;;;;;;;;;4183157;28;20060;-42
2022/12/12 10:12:32;;;;;;;1.00;0.63;;;;;;;;;;4184386;28;20457;-40
2022/12/12 10:14:41;;;;;;;1.75;1.00;;;;;;;;;;4172661;28;20056;-40
2022/12/12 10:16:43;;;;;;;1.67;0.93;;;;;;;;;;4205524;28;20056;-42
2022/12/12 10:18:47;;;;;;;1.45;0.90;;;;;;;;;;4208546;27;20054;-42
2022/12/12 10:20:51;;;;;;;3.10;0.90;;;;;;;;;;4185257;28;20209;-40
2022/12/12 10:23:00;;;;;;;1.50;0.90;;;;;;;;;;4201955;28;20063;-41
2022/12/12 10:25:07;;;;;;;1.27;0.90;;;;;;;;;;4174632;28;20093;-41
2022/12/12 10:27:11;;;;;;;4.25;1.33;;;;;;;;;;4189918;28;20468;-41
2022/12/12 10:29:17;;;;;;;3.08;1.05;;;;;;;;;;4208495;28;20494;-41
2022/12/12 10:31:38;;;;;;;1.70;0.77;;;;;;;;;;4200087;28;20083;-42
2022/12/12 10:33:54;;;;;;;1.40;0.98;;;;;;;;;;4209119;28;20888;-41
2022/12/12 10:36:01;;;;;;;1.30;0.70;;;;;;;;;;4208807;28;20381;-41
2022/12/12 10:38:20;;;;;;;1.83;0.70;;;;;;;;;;4209980;27;20439;-41
2022/12/12 10:40:29;;;;;;;0.90;0.77;;;;;;;;;;4187024;28;20056;-42
2022/12/12 10:42:35;;;;;;;1.23;0.77;;;;;;;;;;4184516;28;20665;-44
2022/12/12 10:45:04;;;;;;;2.95;0.80;;;;;;;;;;4186673;28;20064;-39
2022/12/12 10:47:09;;;;;;;1.70;1.13;;;;;;;;;;4182967;28;20152;-40
2022/12/12 10:49:15;;;;;;;1.88;0.90;;;;;;;;;;4197623;28;20061;-40
2022/12/12 10:51:19;;;;;;;1.55;0.80;;;;;;;;;;4201414;28;20062;-42
2022/12/12 10:53:21;;;;;;;0.70;0.50;;;;;;;;;;4190457;28;20057;-39
2022/12/12 10:55:34;;;;;;;1.42;0.90;;;;;;;;;;4207081;28;20752;-40
2022/12/12 10:57:35;;;;;;;1.35;0.70;;;;;;;;;;4202154;28;20052;-40
2022/12/12 10:59:54;;;;;;;0.98;0.70;;;;;;;;;;4182765;27;20056;-38
2022/12/12 11:01:58;;;;;;;1.48;0.98;;;;;;;;;;4180120;28;20138;-41
2022/12/12 11:04:00;;;;;;;2.25;0.77;;;;;;;;;;4200465;28;20546;-40
2022/12/12 11:06:04;;;;;;;1.08;0.80;;;;;;;;;;4204354;28;20096;-41
2022/12/12 11:08:23;;;;;;;1.27;0.80;;;;;;;;;;4187850;28;20105;-40
2022/12/12 11:10:30;;;;;;;1.57;0.80;;;;;;;;;;4200138;28;20457;-41
2022/12/12 11:12:33;;;;;;;1.75;1.00;;;;;;;;;;4202400;28;21127;-41
2022/12/12 11:14:41;;;;;;;1.45;0.85;;;;;;;;;;4201623;28;20871;-42
2022/12/12 11:16:43;;;;;;;0.77;0.77;;;;;;;;;;4206398;27;20056;-41
2022/12/12 11:19:16;;;;;;;0.88;0.80;;;;;;;;;;4210542;27;20698;-40
2022/12/12 11:21:19;;;;;;;0.88;0.73;;;;;;;;;;4208784;28;20443;-41
2022/12/12 11:23:25;;;;;;;1.13;0.65;;;;;;;;;;4204714;28;20613;-39
2022/12/12 11:25:30;;;;;;;1.02;0.63;;;;;;;;;;4204516;28;20589;-39
2022/12/12 11:27:35;;;;;;;1.25;0.98;;;;;;;;;;4206619;28;20529;-38
2022/12/12 11:29:43;;;;;;;1.05;0.70;;;;;;;;;;4175766;28;20053;-39
2022/12/12 11:31:44;;;;;;;1.20;0.82;;;;;;;;;;4208439;28;20078;-39
2022/12/12 11:33:52;;;;;;;1.20;0.90;;;;;;;;;;4205058;28;20055;-39
2022/12/12 11:35:55;;;;;;;3.65;1.00;;;;;;;;;;4188871;28;21663;-39
2022/12/12 11:38:12;;;;;;;0.98;0.75;;;;;;;;;;4188040;28;20060;-39
2022/12/12 11:40:39;;;;;;;0.80;0.80;;;;;;;;;;4189627;28;20051;-39
2022/12/12 11:42:40;;;;;;;2.47;1.00;;;;;;;;;;4190011;28;20545;-41
2022/12/12 11:44:43;;;;;;;1.80;1.10;;;;;;;;;;4188017;28;20056;-39
2022/12/12 11:46:44;;;;;;;1.23;0.80;;;;;;;;;;4198390;28;20518;-39
2022/12/12 11:48:45;;;;;;;2.15;1.20;;;;;;;;;;4200771;28;21937;-39
2022/12/12 11:50:47;;;;;;;2.13;0.93;;;;;;;;;;4204397;28;20067;-40
2022/12/12 11:52:51;;;;;;;3.80;1.05;;;;;;;;;;4206556;28;20110;-40
2022/12/12 11:54:52;;;;;;;3.45;0.82;;;;;;;;;;4186569;28;20139;-38
2022/12/12 11:57:03;;;;;;;3.00;1.00;;;;;;;;;;4203625;27;20075;-38
2022/12/12 11:59:07;;;;;;;2.88;1.25;;;;;;;;;;4200914;28;20117;-39
2022/12/12 12:01:30;;;;;;;2.78;1.15;;;;;;;;;;4182725;27;21617;-38
2022/12/12 12:04:02;;;;;;;3.67;1.52;;;;;;;;;;4182976;27;20475;-39
2022/12/12 12:06:49;;;;;;;3.95;1.10;;;;;;;;;;4181002;28;20055;-38
2022/12/12 12:09:04;;;;;;;2.50;1.40;;;;;;;;;;4169467;28;20133;-39
2022/12/12 12:11:39;;;;;;;3.95;1.58;;;;;;;;;;4201300;27;20089;-38
2022/12/12 12:13:43;;;;;;;4.10;1.30;;;;;;;;;;4170803;28;20710;-39
2022/12/12 12:15:55;;;;;;;4.25;1.58;;;;;;;;;;4205229;28;20082;-39
2022/12/12 12:18:08;;;;;;;4.35;1.48;;;;;;;;;;4206973;28;20064;-39
2022/12/12 12:20:21;;;;;;;5.78;1.60;;;;;;;;;;4205036;28;21499;-39
2022/12/12 12:22:47;;;;;;;3.17;1.45;;;;;;;;;;4203588;27;20051;-39
2022/12/12 12:25:15;;;;;;;8.18;2.25;;;;;;;;;;4200915;28;20987;-39
2022/12/12 12:27:41;;;;;;;8.57;1.30;;;;;;;;;;4193827;27;20517;-38
2022/12/12 12:30:05;;;;;;;4.90;1.60;;;;;;;;;;4177427;28;20064;-39
2022/12/12 12:32:25;;;;;;;6.85;1.55;;;;;;;;;;4175136;28;20061;-40
2022/12/12 12:34:32;;;;;;;;;;;;;;;;;;4185732;28;20056;-40
2022/12/12 12:36:38;;;;;;;3.00;1.40;;;;;;;;;;4184177;28;19928;-40
2022/12/12 12:38:52;;;;;;;5.95;1.80;;;;;;;;;;4188620;28;20092;-40
2022/12/12 12:41:21;;;;;;;5.50;1.60;;;;;;;;;;4201448;28;20064;-40
2022/12/12 12:43:45;;;;;;;4.65;1.75;;;;;;;;;;4208681;27;20510;-44
2022/12/12 12:45:56;;;;;;;4.60;1.33;;;;;;;;;;4204346;28;20122;-40
2022/12/12 12:48:03;;;;;;;5.35;1.45;;;;;;;;;;4186991;28;20121;-40